.
WxDataArchive / Data Records for 2013-04-01
2013-03-31 April 2013 2013-04-02

Data Records for Monday, 01 April 2013

Time	Temp	Chill	HIndex	Humid	Dewpt	 Wind 	HiWind	WindDir	Rain 	Barom 
-----	----	-----	------	-----	-----	------	------	-------	-----	----- 
00:00	40.3	40.3	40.3	60	27.5	2	4	338	0.00	29.790 
00:05	40.2	40.2	40.2	60	27.4	1	4	315	0.00	29.790 
00:10	40.1	40.1	40.1	60	27.3	1	5	315	0.00	29.790 
00:15	40.1	40.1	40.1	61	27.7	1	3	292	0.00	29.783 
00:20	39.9	39.9	39.9	62	28.0	1	3	248	0.00	29.783 
00:25	39.6	39.6	39.6	62	27.7	1	4	315	0.00	29.783 
00:30	39.5	39.5	39.5	61	27.2	1	5	315	0.00	29.781 
00:35	39.5	39.5	39.5	61	27.2	0	4	315	0.00	29.781 
00:40	39.2	39.2	39.2	61	26.9	1	4	315	0.00	29.781 
00:45	39.1	39.1	39.1	61	26.8	0	2	225	0.00	29.784 
00:50	39.1	39.1	39.1	61	26.8	1	3	315	0.00	29.784 
00:55	38.9	38.9	38.9	61	26.6	1	3	315	0.00	29.784 
01:00	38.8	38.8	38.8	61	26.5	2	4	315	0.00	29.786 
01:05	38.8	38.8	38.8	61	26.5	1	4	248	0.00	29.786 
01:10	38.8	38.8	38.8	61	26.5	1	5	338	0.00	29.786 
01:15	38.6	38.6	38.6	61	26.3	2	5	338	0.00	29.786 
01:20	38.5	38.5	38.5	61	26.2	1	3	315	0.00	29.786 
01:25	38.3	38.3	38.3	62	26.4	1	3	270	0.00	29.786 
01:30	38.2	38.2	38.2	62	26.3	1	3	270	0.00	29.791 
01:35	38.0	38.0	38.0	62	26.2	1	2	270	0.00	29.791 
01:40	37.9	37.9	37.9	63	26.4	0	2	270	0.00	29.791 
01:45	37.8	37.8	37.8	63	26.4	1	3	270	0.00	29.795 
01:50	37.6	37.6	37.6	64	26.5	1	3	315	0.00	29.795 
01:55	37.6	37.6	37.6	64	26.5	1	4	270	0.00	29.795 
02:00	37.6	37.6	37.6	64	26.5	1	4	270	0.00	29.806 
02:05	37.6	37.6	37.6	64	26.5	1	4	315	0.00	29.806 
02:10	37.6	37.6	37.6	64	26.5	1	4	248	0.00	29.806 
02:15	37.5	37.5	37.5	65	26.8	1	2	248	0.00	29.806 
02:20	37.3	37.3	37.3	65	26.6	0	2	248	0.00	29.806 
02:25	37.2	37.2	37.2	65	26.5	0	2	248	0.00	29.806 
02:30	36.9	36.9	36.9	66	26.6	1	3	248	0.00	29.809 
02:35	36.9	36.9	36.9	67	27.0	1	2	248	0.00	29.809 
02:40	36.8	36.8	36.8	67	26.9	1	4	248	0.00	29.809 
02:45	36.8	36.8	36.8	68	27.2	1	3	292	0.00	29.815 
02:50	36.6	36.6	36.6	68	27.1	1	2	292	0.00	29.815 
02:55	36.6	36.6	36.6	68	27.1	1	3	270	0.00	29.815 
03:00	36.8	36.8	36.8	69	27.6	1	5	270	0.00	29.819 
03:05	36.6	36.6	36.6	69	27.4	1	5	338	0.00	29.819 
03:10	36.8	36.8	36.8	69	27.6	2	5	338	0.00	29.819 
03:15	36.8	33.6	36.8	67	26.9	4	13	338	0.00	29.823 
03:20	36.8	36.8	36.8	66	26.5	3	9	292	0.00	29.823 
03:25	36.6	36.6	36.6	66	26.3	2	6	315	0.00	29.823 
03:30	36.3	36.3	36.3	67	26.4	2	6	338	0.00	29.825 
03:35	36.2	36.2	36.2	68	26.7	2	9	315	0.00	29.825 
03:40	36.2	36.2	36.2	68	26.7	1	4	292	0.00	29.825 
03:45	36.2	36.2	36.2	68	26.7	2	9	292	0.00	29.834 
03:50	36.2	36.2	36.2	69	27.0	1	4	292	0.00	29.834 
03:55	36.0	36.0	36.0	69	26.8	1	3	292	0.00	29.834 
04:00	36.0	36.0	36.0	69	26.8	1	5	292	0.00	29.840 
04:05	35.9	35.9	35.9	69	26.7	1	3	292	0.00	29.840 
04:10	35.8	35.8	35.8	69	26.6	1	3	315	0.00	29.840 
04:15	35.5	35.5	35.5	69	26.4	0	2	315	0.00	29.838 
04:20	35.3	35.3	35.3	69	26.2	0	2	248	0.00	29.838 
04:25	35.2	35.2	35.2	70	26.4	1	4	248	0.00	29.838 
04:30	35.2	35.2	35.2	70	26.4	0	2	338	0.00	29.844 
04:35	35.2	35.2	35.2	70	26.4	0	2	315	0.00	29.844 
04:40	35.0	35.0	35.0	71	26.6	0	2	315	0.00	29.844 
04:45	35.2	35.2	35.2	71	26.8	0	3	248	0.00	29.854 
04:50	35.3	35.3	35.3	71	26.9	1	4	315	0.00	29.854 
04:55	35.3	35.3	35.3	71	26.9	1	2	315	0.00	29.854 
05:00	35.2	35.2	35.2	71	26.8	1	4	315	0.00	29.864 
05:05	35.2	35.2	35.2	71	26.8	1	3	292	0.00	29.864 
05:10	35.2	35.2	35.2	71	26.8	1	4	315	0.00	29.864 
05:15	35.0	35.0	35.0	72	26.9	1	4	292	0.00	29.874 
05:20	34.7	34.7	34.7	71	26.3	2	7	315	0.00	29.874 
05:25	34.3	34.3	34.3	65	23.8	2	6	338	0.00	29.874 
05:30	34.0	34.0	34.0	61	22.0	2	5	338	0.00	29.888 
05:35	33.5	33.5	33.5	59	20.7	2	7	338	0.00	29.888 
05:40	33.2	33.2	33.2	59	20.4	0	2	315	0.00	29.888 
05:45	33.1	33.1	33.1	58	20.0	1	4	0	0.00	29.891 
05:50	32.8	32.8	32.8	58	19.7	1	5	0	0.00	29.891 
05:55	32.7	32.7	32.7	57	19.2	0	2	315	0.00	29.891 
06:00	32.4	32.4	32.4	57	18.9	0	1	315	0.00	29.901 
06:05	32.1	32.1	32.1	55	17.8	1	3	0	0.00	29.901 
06:10	31.9	31.9	31.9	53	16.7	1	3	315	0.00	29.901 
06:15	31.8	31.8	31.8	53	16.6	1	4	292	0.00	29.914 
06:20	31.6	31.6	31.6	53	16.5	1	4	270	0.00	29.914 
06:25	31.5	31.5	31.5	52	15.9	0	3	315	0.00	29.914 
06:30	31.3	31.3	31.3	53	16.2	0	2	315	0.00	29.925 
06:35	31.0	31.0	31.0	53	15.9	0	1	315	0.00	29.925 
06:40	30.9	30.9	30.9	53	15.8	0	2	315	0.00	29.925 
06:45	30.7	30.7	30.7	53	15.6	0	4	315	0.00	29.934 
06:50	30.7	30.7	30.7	53	15.6	0	2	315	0.00	29.934 
06:55	30.6	30.6	30.6	52	15.1	0	2	315	0.00	29.934 
07:00	30.4	30.4	30.4	52	14.9	0	2	315	0.00	29.942 
07:05	30.3	30.3	30.3	53	15.2	0	2	315	0.00	29.942 
07:10	30.3	30.3	30.3	53	15.2	0	1	315	0.00	29.942 
07:15	30.1	30.1	30.1	53	15.1	0	1	315	0.00	29.951 
07:20	30.0	30.0	30.0	53	15.0	0	2	315	0.00	29.951 
07:25	29.8	29.8	29.8	54	15.2	0	3	0	0.00	29.951 
07:30	29.7	29.7	29.7	54	15.1	0	1	292	0.00	29.960 
07:35	29.5	29.5	29.5	54	14.9	0	0	---	0.00	29.960 
07:40	29.4	29.4	29.4	55	15.3	0	0	---	0.00	29.960 
07:45	29.3	29.3	29.3	56	15.6	0	1	292	0.00	29.974 
07:50	29.3	29.3	29.3	56	15.6	0	1	225	0.00	29.974 
07:55	29.5	29.5	29.5	57	16.2	0	2	225	0.00	29.974 
08:00	29.8	29.8	29.8	56	16.0	0	1	270	0.00	29.984 
08:05	30.0	30.0	30.0	56	16.2	0	1	270	0.00	29.984 
08:10	30.3	30.3	30.3	55	16.1	0	1	270	0.00	29.984 
08:15	30.6	30.6	30.6	54	16.0	0	2	270	0.00	29.993 
08:20	30.9	30.9	30.9	54	16.2	0	2	270	0.00	29.993 
08:25	31.2	31.2	31.2	53	16.1	0	1	270	0.00	29.993 
08:30	31.5	31.5	31.5	52	15.9	0	2	270	0.00	30.003 
08:35	31.8	31.8	31.8	52	16.2	0	1	270	0.00	30.003 
08:40	32.1	32.1	32.1	51	16.0	0	2	270	0.00	30.003 
08:45	32.4	32.4	32.4	51	16.3	0	2	270	0.00	30.005 
08:50	32.5	32.5	32.5	50	16.0	0	3	0	0.00	30.005 
08:55	32.7	32.7	32.7	50	16.1	0	1	0	0.00	30.005 
09:00	32.9	32.9	32.9	50	16.3	0	2	292	0.00	30.007 
09:05	33.1	33.1	33.1	50	16.5	1	3	248	0.00	30.007 
09:10	33.2	33.2	33.2	50	16.6	1	5	248	0.00	30.007 
09:15	33.2	33.2	33.2	50	16.6	1	6	338	0.00	30.010 
09:20	33.4	33.4	33.4	50	16.8	2	4	338	0.00	30.010 
09:25	33.1	33.1	33.1	50	16.5	1	5	338	0.00	30.010 
09:30	32.8	32.8	32.8	51	16.7	1	5	315	0.00	30.014 
09:35	32.9	32.9	32.9	50	16.3	2	6	270	0.00	30.014 
09:40	32.7	32.7	32.7	51	16.6	2	11	338	0.00	30.014 
09:45	32.9	32.9	32.9	51	16.8	2	4	0	0.00	30.016 
09:50	33.2	33.2	33.2	51	17.1	2	6	338	0.00	30.016 
09:55	33.7	33.7	33.7	50	17.1	3	5	270	0.00	30.016 
10:00	33.7	33.7	33.7	50	17.1	2	9	270	0.00	30.018 
10:05	33.7	33.7	33.7	49	16.6	2	7	338	0.00	30.018 
10:10	34.1	34.1	34.1	48	16.5	2	7	315	0.00	30.018 
10:15	34.0	34.0	34.0	48	16.4	2	10	292	0.00	30.028 
10:20	33.8	33.8	33.8	48	16.2	3	10	338	0.00	30.028 
10:25	34.3	34.3	34.3	49	17.1	2	5	315	0.00	30.028 
10:30	34.3	34.3	34.3	47	16.2	3	10	338	0.00	30.029 
10:35	34.3	34.3	34.3	48	16.7	3	7	315	0.00	30.029 
10:40	34.4	34.4	34.4	48	16.8	1	4	338	0.00	30.029 
10:45	34.9	34.9	34.9	50	18.2	1	11	0	0.00	30.036 
10:50	34.9	34.9	34.9	49	17.7	2	7	338	0.00	30.036 
10:55	35.0	35.0	35.0	48	17.3	2	6	338	0.00	30.036 
11:00	35.0	35.0	35.0	48	17.3	2	4	292	0.00	30.039 
11:05	35.3	35.3	35.3	48	17.6	2	10	270	0.00	30.039 
11:10	35.3	35.3	35.3	47	17.1	1	5	292	0.00	30.039 
11:15	35.2	35.2	35.2	45	16.0	3	6	270	0.00	30.046 
11:20	35.3	35.3	35.3	45	16.1	2	6	270	0.00	30.046 
11:25	35.8	35.8	35.8	44	16.0	3	10	315	0.00	30.046 
11:30	36.2	36.2	36.2	43	15.9	3	6	315	0.00	30.047 
11:35	36.8	36.8	36.8	44	17.0	3	7	270	0.00	30.047 
11:40	35.9	32.6	35.9	39	13.4	4	7	315	0.00	30.047 
11:45	36.3	36.3	36.3	41	14.9	2	5	270	0.00	30.049 
11:50	37.2	37.2	37.2	39	14.6	3	6	270	0.00	30.049 
11:55	37.8	34.8	37.8	38	14.5	4	13	270	0.00	30.049 
12:00	37.9	37.9	37.9	38	14.6	3	7	270	0.00	30.050 
12:05	38.5	38.5	38.5	39	15.7	3	6	270	0.00	30.050 
12:10	38.6	38.6	38.6	40	16.4	3	7	270	0.00	30.050 
12:15	38.3	38.3	38.3	39	15.5	3	6	270	0.00	30.053 
12:20	38.6	38.6	38.6	38	15.2	3	8	292	0.00	30.053 
12:25	37.8	37.8	37.8	38	14.5	2	5	270	0.00	30.053 
12:30	37.6	37.6	37.6	39	14.9	3	7	248	0.00	30.060 
12:35	38.5	38.5	38.5	39	15.7	2	7	315	0.00	30.060 
12:40	39.2	39.2	39.2	40	16.9	3	6	270	0.00	30.060 
12:45	39.3	39.3	39.3	36	14.6	2	6	248	0.00	30.053 
12:50	39.5	39.5	39.5	36	14.8	3	10	270	0.00	30.053 
12:55	39.5	39.5	39.5	35	14.1	3	8	270	0.00	30.053 
13:00	39.5	39.5	39.5	35	14.1	3	9	315	0.00	30.050 
13:05	40.2	40.2	40.2	36	15.4	2	5	270	0.00	30.050 
13:10	39.6	39.6	39.6	35	14.2	2	6	338	0.00	30.050 
13:15	38.9	38.9	38.9	36	14.2	2	6	248	0.00	30.055 
13:20	38.5	38.5	38.5	36	13.9	3	9	270	0.00	30.055 
13:25	38.5	38.5	38.5	35	13.3	3	10	315	0.00	30.055 
13:30	37.6	37.6	37.6	34	11.8	3	11	315	0.00	30.055 
13:35	37.9	37.9	37.9	36	13.4	2	6	338	0.00	30.055 
13:40	39.3	39.3	39.3	36	14.6	2	5	315	0.00	30.055 
13:45	39.6	39.6	39.6	35	14.2	3	6	270	0.00	30.056 
13:50	39.5	39.5	39.5	33	12.8	3	7	270	0.00	30.056 
13:55	39.3	39.3	39.3	35	14.0	3	7	270	0.00	30.056 
14:00	39.8	39.8	39.8	33	13.1	3	10	292	0.00	30.054 
14:05	40.1	40.1	40.1	35	14.7	3	7	248	0.00	30.054 
14:10	40.1	40.1	40.1	34	14.0	3	7	270	0.00	30.054 
14:15	39.6	39.6	39.6	33	12.9	3	6	315	0.00	30.059 
14:20	40.2	40.2	40.2	32	12.7	3	10	270	0.00	30.059 
14:25	40.8	40.8	40.8	33	14.0	2	6	225	0.00	30.059 
14:30	41.1	41.1	41.1	34	14.9	3	6	270	0.00	30.056 
14:35	40.6	40.6	40.6	30	11.6	3	12	270	0.00	30.056 
14:40	40.2	40.2	40.2	30	11.3	3	6	270	0.00	30.056 
14:45	40.1	40.1	40.1	32	12.6	3	5	315	0.00	30.057 
14:50	39.5	39.5	39.5	31	11.4	3	7	270	0.00	30.057 
14:55	40.1	40.1	40.1	31	11.9	3	6	248	0.00	30.057 
15:00	39.5	39.5	39.5	31	11.4	2	5	338	0.00	30.059 
15:05	39.3	39.3	39.3	32	11.9	3	7	338	0.00	30.059 
15:10	39.3	39.3	39.3	31	11.2	3	7	315	0.00	30.059 
15:15	39.6	39.6	39.6	32	12.2	3	8	270	0.00	30.060 
15:20	39.3	39.3	39.3	34	13.3	2	5	315	0.00	30.060 
15:25	40.3	37.7	40.3	32	12.8	4	10	270	0.00	30.060 
15:30	40.3	40.3	40.3	31	12.1	3	8	270	0.00	30.061 
15:35	40.2	40.2	40.2	31	12.0	2	5	270	0.00	30.061 
15:40	40.3	37.7	40.3	31	12.1	4	13	270	0.00	30.061 
15:45	39.9	37.2	39.9	32	12.5	4	9	315	0.00	30.061 
15:50	39.3	39.3	39.3	32	11.9	2	10	338	0.00	30.061 
15:55	39.5	39.5	39.5	31	11.4	3	10	338	0.00	30.061 
16:00	40.3	40.3	40.3	31	12.1	3	7	270	0.00	30.061 
16:05	40.6	40.6	40.6	29	10.9	3	9	270	0.00	30.061 
16:10	40.1	40.1	40.1	31	11.9	3	7	270	0.00	30.061 
16:15	39.3	39.3	39.3	31	11.2	3	7	292	0.00	30.068 
16:20	39.8	39.8	39.8	32	12.4	2	7	315	0.00	30.068 
16:25	39.9	39.9	39.9	32	12.5	3	6	0	0.00	30.068 
16:30	40.5	40.5	40.5	32	13.0	3	9	248	0.00	30.070 
16:35	40.3	37.7	40.3	30	11.4	4	12	270	0.00	30.070 
16:40	40.6	40.6	40.6	30	11.6	2	11	248	0.00	30.070 
16:45	39.3	39.3	39.3	29	9.7	3	9	315	0.00	30.076 
16:50	38.5	35.6	38.5	30	9.8	4	10	315	0.00	30.076 
16:55	38.8	38.8	38.8	32	11.5	3	11	315	0.00	30.076 
17:00	39.2	39.2	39.2	30	10.4	2	10	248	0.00	30.077 
17:05	39.5	39.5	39.5	31	11.4	3	8	270	0.00	30.077 
17:10	39.9	39.9	39.9	30	11.0	2	5	248	0.00	30.077 
17:15	38.9	38.9	38.9	30	10.1	3	10	270	0.00	30.083 
17:20	38.5	38.5	38.5	31	10.5	3	10	315	0.00	30.083 
17:25	38.5	38.5	38.5	30	9.8	3	6	270	0.00	30.083 
17:30	38.6	38.6	38.6	31	10.6	3	6	270	0.00	30.084 
17:35	38.5	38.5	38.5	30	9.8	3	7	315	0.00	30.084 
17:40	38.6	38.6	38.6	31	10.6	2	6	270	0.00	30.084 
17:45	38.9	38.9	38.9	30	10.1	3	7	338	0.00	30.086 
17:50	38.2	34.4	38.2	29	8.8	5	10	315	0.00	30.086 
17:55	37.8	37.8	37.8	30	9.2	2	6	270	0.00	30.086 
18:00	38.0	38.0	38.0	31	10.1	3	6	248	0.00	30.088 
18:05	37.8	34.8	37.8	30	9.2	4	8	270	0.00	30.088 
18:10	37.2	37.2	37.2	30	8.7	2	6	338	0.00	30.088 
18:15	37.3	37.3	37.3	31	9.5	2	6	270	0.00	30.090 
18:20	37.3	37.3	37.3	31	9.5	3	7	270	0.00	30.090 
18:25	37.3	37.3	37.3	30	8.7	2	6	270	0.00	30.090 
18:30	37.3	37.3	37.3	29	8.0	2	10	270	0.00	30.098 
18:35	37.2	37.2	37.2	30	8.7	3	10	292	0.00	30.098 
18:40	36.9	36.9	36.9	30	8.4	2	10	248	0.00	30.098 
18:45	36.9	36.9	36.9	30	8.4	2	5	292	0.00	30.099 
18:50	36.9	36.9	36.9	31	9.1	1	5	315	0.00	30.099 
18:55	36.8	36.8	36.8	31	9.0	2	7	248	0.00	30.099 
19:00	36.5	36.5	36.5	31	8.8	2	5	315	0.00	30.099 
19:05	36.3	36.3	36.3	33	10.0	2	5	315	0.00	30.099 
19:10	36.2	36.2	36.2	32	9.2	3	6	315	0.00	30.099 
19:15	36.0	36.0	36.0	33	9.7	2	5	315	0.00	30.102 
19:20	35.8	35.8	35.8	33	9.5	1	7	292	0.00	30.102 
19:25	35.6	35.6	35.6	34	10.0	1	5	270	0.00	30.102 
19:30	35.5	35.5	35.5	34	9.9	1	4	338	0.00	30.104 
19:35	35.3	35.3	35.3	34	9.8	1	4	315	0.00	30.104 
19:40	35.2	35.2	35.2	34	9.7	3	6	338	0.00	30.104 
19:45	35.0	35.0	35.0	34	9.5	2	6	292	0.00	30.107 
19:50	34.7	34.7	34.7	34	9.2	1	4	0	0.00	30.107 
19:55	34.6	34.6	34.6	35	9.8	2	10	270	0.00	30.107 
20:00	34.4	34.4	34.4	35	9.6	1	3	292	0.00	30.109 
20:05	34.1	34.1	34.1	36	10.0	1	5	270	0.00	30.109 
20:10	34.0	34.0	34.0	36	9.9	1	5	270	0.00	30.109 
20:15	33.8	33.8	33.8	37	10.3	1	3	270	0.00	30.112 
20:20	33.7	33.7	33.7	37	10.2	1	5	315	0.00	30.112 
20:25	33.5	33.5	33.5	38	10.6	2	6	338	0.00	30.112 
20:30	33.4	33.4	33.4	38	10.6	1	5	292	0.00	30.114 
20:35	33.2	33.2	33.2	39	11.0	1	3	315	0.00	30.114 
20:40	32.9	32.9	32.9	39	10.7	1	4	248	0.00	30.114 
20:45	32.8	32.8	32.8	40	11.2	1	4	292	0.00	30.117 
20:50	32.7	32.7	32.7	41	11.6	1	5	338	0.00	30.117 
20:55	32.5	32.5	32.5	42	12.0	1	4	338	0.00	30.117 
21:00	32.4	32.4	32.4	43	12.4	1	4	248	0.00	30.122 
21:05	32.1	32.1	32.1	43	12.2	1	4	338	0.00	30.122 
21:10	31.9	31.9	31.9	44	12.5	1	2	315	0.00	30.122 
21:15	31.6	31.6	31.6	45	12.7	0	1	315	0.00	30.127 
21:20	31.5	31.5	31.5	45	12.6	0	3	338	0.00	30.127 
21:25	31.2	31.2	31.2	46	12.9	0	3	0	0.00	30.127 
21:30	31.0	31.0	31.0	46	12.7	0	1	0	0.00	30.132 
21:35	30.7	30.7	30.7	46	12.4	0	2	0	0.00	30.132 
21:40	30.6	30.6	30.6	46	12.3	0	1	0	0.00	30.132 
21:45	30.4	30.4	30.4	47	12.6	0	3	0	0.00	30.135 
21:50	30.4	30.4	30.4	47	12.6	0	2	338	0.00	30.135 
21:55	30.3	30.3	30.3	47	12.5	0	2	338	0.00	30.135 
22:00	30.1	30.1	30.1	47	12.3	0	2	338	0.00	30.137 
22:05	30.0	30.0	30.0	48	12.7	0	1	338	0.00	30.137 
22:10	29.8	29.8	29.8	48	12.5	0	1	338	0.00	30.137 
22:15	29.5	29.5	29.5	48	12.3	0	1	338	0.00	30.143 
22:20	29.4	29.4	29.4	49	12.6	0	1	338	0.00	30.143 
22:25	29.1	29.1	29.1	49	12.4	0	1	338	0.00	30.143 
22:30	29.0	29.0	29.0	50	12.7	0	1	338	0.00	30.147 
22:35	28.8	28.8	28.8	50	12.5	0	1	338	0.00	30.147 
22:40	28.7	28.7	28.7	50	12.4	0	1	338	0.00	30.147 
22:45	28.7	28.7	28.7	50	12.4	0	1	338	0.00	30.150 
22:50	28.5	28.5	28.5	50	12.3	0	1	338	0.00	30.150 
22:55	28.5	28.5	28.5	51	12.7	0	1	338	0.00	30.150 
23:00	28.4	28.4	28.4	51	12.6	0	1	338	0.00	30.152 
23:05	28.2	28.2	28.2	51	12.4	0	1	338	0.00	30.152 
23:10	28.1	28.1	28.1	51	12.3	0	0	---	0.00	30.152 
23:15	27.9	27.9	27.9	51	12.1	0	0	---	0.00	30.149 
23:20	27.8	27.8	27.8	51	12.1	0	0	---	0.00	30.149 
23:25	27.5	27.5	27.5	52	12.2	0	0	---	0.00	30.149 
23:30	27.2	27.2	27.2	52	11.9	0	0	---	0.00	30.151 
23:35	27.0	27.0	27.0	52	11.7	0	0	---	0.00	30.151 
23:40	26.7	26.7	26.7	53	11.9	0	0	---	0.00	30.151 
23:45	26.4	26.4	26.4	53	11.6	0	0	---	0.00	30.151 
23:50	26.1	26.1	26.1	54	11.8	0	0	---	0.00	30.151 
23:55	26.0	26.0	26.0	55	12.1	0	0	---	0.00	30.151 

CoCoRaHS
IN-AL-39
A2 Web Hosting
Creative Commons License
GoDaddy
search engine by freefind advanced

loaded 2018-11-15 14:26:50 • last modified 2010-11-18 10:43:29
Privacy PolicyDisclaimer
• wx.awcolley.com is powered by PmWiki v.2002016 •
• all content (unless otherwise noted) © 2018 A W Colley